Accueil
METAR-TAF:

METAR-TAF

Aéroports :

Albenga, Italie

Aéroport Riviera Airport

latitude: 44-03N, longitude: 008-07E, altitude: 45 m

Observation

Le bulletin a été fait il y a 3 heures et 24 minutes, à 16:50 UTC
Vent 19 kt de nord/nord-est avec des rafales jusqu'à 37 kt, variant entre nord/nord-ouest et est/nord-est
Température 9°C
Humidité 46%
Pression 1004 hPa
Visibilité 10 km ou plus
Nuages épars à une hauteur de 4000 ft

METAR: LIMG 231650Z 02019G37KT 330V070 9999 SCT040 09/M02 Q1004

Heure: 21:14 (20:14 UTC)


TAF: absent

Observations et prévisions météorologiques de plus de 4000 aéroports (messages METAR et TAF).

Les stations disponibles sont représentées par des disques jaunes et rouges sur la carte.

Passer la souris dessus pour voir le nom de la station.

Cliquer dessus pour voir les observations et prévisions météorologiques.

Pour changer de carte: cliquez sur les boutons verts avec une croix noire pour zoomer, sur le bouton vert avec un tiret pour effectuer un zoom arrière, ou sur les flèches vertes pour les cartes adjacentes.


METAR-TAF: